Time;durP1;ratioP1;P1;durP2;ratioP2;P2;SDS_P1;SDS_P2;PMS_P1;PMS_P2;Temp;Humidity;BMP_temperature;BMP_pressure;BME280_temperature;BME280_humidity;BME280_pressure;Samples;Min_cycle;Max_cycle;Signal;HPM_P1;HPM_P2
2023/06/26 00:01:42;;;;;;;7.87;6.97;;;;;;;23.76;42.08;98660.69;6891557;28;20330;-85
2023/06/26 00:05:05;;;;;;;8.43;6.87;;;;;;;23.94;41.55;98658.03;6891530;28;20201;-84
2023/06/26 00:08:28;;;;;;;7.83;7.07;;;;;;;23.86;41.57;98666.09;6891572;28;20212;-85
2023/06/26 00:11:49;;;;;;;8.37;7.57;;;;;;;23.88;41.73;98672.97;6891368;28;20376;-84
2023/06/26 00:15:12;;;;;;;7.90;7.10;;;;;;;23.87;41.19;98654.81;6891634;28;20342;-84
2023/06/26 00:18:33;;;;;;;7.57;6.80;;;;;;;23.94;41.33;98673.72;6891602;28;20235;-85
2023/06/26 00:21:55;;;;;;;7.97;7.17;;;;;;;24.04;40.91;98659.84;6891224;28;20859;-84
2023/06/26 00:25:18;;;;;;;8.13;7.33;;;;;;;23.85;41.85;98670.81;6891794;28;20300;-85
2023/06/26 00:28:39;;;;;;;8.03;7.23;;;;;;;23.25;42.98;98681.63;6896546;28;20262;-84
2023/06/26 00:32:01;;;;;;;8.13;7.33;;;;;;;23.14;42.87;98645.09;6909337;28;20230;-84
2023/06/26 00:35:22;;;;;;;8.60;7.47;;;;;;;23.11;43.58;98675.09;6907999;28;20208;-84
2023/06/26 00:38:44;;;;;;;9.40;7.63;;;;;;;23.01;43.78;98662.28;6891645;28;20662;-84
2023/06/26 00:42:07;;;;;;;8.47;7.67;;;;;;;23.26;43.58;98664.81;6891953;28;20228;-84
2023/06/26 00:45:30;;;;;;;7.73;7.00;;;;;;;22.64;44.65;98666.69;6891786;28;20199;-84
2023/06/26 00:48:53;;;;;;;8.27;7.40;;;;;;;23.07;43.68;98677.63;6893210;28;20333;-83
2023/06/26 00:52:16;;;;;;;8.60;7.80;;;;;;;22.65;44.63;98673.84;6899084;28;20297;-84
2023/06/26 00:55:38;;;;;;;8.23;7.40;;;;;;;22.67;44.54;98675.19;6892781;28;20216;-84
2023/06/26 00:59:00;;;;;;;9.03;7.87;;;;;;;22.76;44.49;98658.91;6890143;28;20777;-85
2023/06/26 01:02:22;;;;;;;9.63;7.90;;;;;;;22.39;45.33;98664.94;6889924;28;20704;-85
2023/06/26 01:05:45;;;;;;;9.20;7.60;;;;;;;22.34;45.47;98664.94;6890114;28;20263;-85
2023/06/26 01:09:06;;;;;;;8.77;7.87;;;;;;;22.40;45.45;98666.56;6890201;28;20233;-84
2023/06/26 01:12:28;;;;;;;8.47;7.50;;;;;;;22.65;44.08;98657.38;6890444;28;20755;-84
2023/06/26 01:15:51;;;;;;;7.93;7.13;;;;;;;23.11;43.22;98662.19;6890400;28;20264;-85
2023/06/26 01:19:25;;;;;;;8.00;7.20;;;;;;;23.01;43.55;98650.47;6889916;28;20314;-84
2023/06/26 01:22:50;;;;;;;8.10;7.30;;;;;;;23.08;43.11;98646.25;6894957;28;20311;-84
2023/06/26 01:26:17;;;;;;;8.13;7.33;;;;;;;22.55;44.21;98650.00;6905376;28;20234;-84
2023/06/26 01:29:39;;;;;;;8.90;7.47;;;;;;;21.59;46.74;98648.78;6904675;28;20243;-84
2023/06/26 01:33:01;;;;;;;8.80;7.30;;;;;;;21.86;46.00;98596.28;6892052;28;20342;-85
2023/06/26 01:36:23;;;;;;;8.20;7.40;;;;;;;22.19;45.97;98645.00;6890316;28;20227;-85
2023/06/26 01:39:44;;;;;;;8.37;7.47;;;;;;;22.20;45.65;98647.44;6890428;28;20234;-84
2023/06/26 01:43:10;;;;;;;8.70;7.80;;;;;;;22.33;45.39;98644.09;6890176;28;20293;-84
2023/06/26 01:46:38;;;;;;;8.23;7.43;;;;;;;22.37;45.10;98636.91;6889686;28;20233;-84
2023/06/26 01:50:05;;;;;;;8.33;7.53;;;;;;;22.39;45.21;98637.44;6888810;28;20242;-84
2023/06/26 01:53:33;;;;;;;8.17;7.37;;;;;;;22.11;45.58;98618.94;6889485;28;20284;-84
2023/06/26 01:56:55;;;;;;;8.93;8.00;;;;;;;22.37;45.05;98625.09;6889733;28;20280;-84
2023/06/26 02:00:21;;;;;;;8.83;7.93;;;;;;;22.32;45.27;98641.63;6888832;28;20284;-84
2023/06/26 02:03:42;;;;;;;9.20;7.97;;;;;;;22.13;45.97;98637.88;6889431;28;20265;-84
2023/06/26 02:07:04;;;;;;;8.37;7.57;;;;;;;22.02;46.37;98630.81;6888454;28;20304;-84
2023/06/26 02:10:26;;;;;;;9.33;7.93;;;;;;;22.14;46.04;98645.03;6888859;28;20727;-84
2023/06/26 02:13:47;;;;;;;8.93;8.03;;;;;;;21.92;46.42;98615.22;6888446;28;20295;-84
2023/06/26 02:17:10;;;;;;;8.27;7.43;;;;;;;21.73;46.69;98633.38;6888414;28;20706;-85
2023/06/26 02:20:33;;;;;;;8.33;7.53;;;;;;;21.98;46.22;98625.06;6888587;28;20373;-84
2023/06/26 02:23:54;;;;;;;10.07;8.40;;;;;;;22.17;45.85;98628.78;6887913;28;20593;-84
2023/06/26 02:27:16;;;;;;;8.53;7.43;;;;;;;21.58;47.42;98633.44;6888036;28;20310;-84
2023/06/26 02:30:37;;;;;;;8.40;7.50;;;;;;;21.46;47.45;98635.66;6887845;28;20815;-84
2023/06/26 02:34:00;;;;;;;8.53;7.67;;;;;;;20.94;47.83;98578.75;6887860;28;20360;-84
2023/06/26 02:37:21;;;;;;;10.10;7.90;;;;;;;21.04;48.89;98647.28;6887556;28;20270;-84
2023/06/26 02:40:43;;;;;;;8.77;7.87;;;;;;;21.02;49.46;98651.09;6887268;28;20694;-85
2023/06/26 02:44:05;;;;;;;8.37;7.43;;;;;;;21.03;49.04;98640.97;6886923;28;20347;-85
2023/06/26 02:47:26;;;;;;;8.00;7.20;;;;;;;21.05;48.89;98644.25;6887852;28;20671;-84
2023/06/26 02:50:49;;;;;;;8.33;7.10;;;;;;;;;;6887199;28;20230;-84
2023/06/26 02:54:10;;;;;;;9.13;7.20;;;;;;;21.41;47.87;98641.16;6887985;28;20211;-84
2023/06/26 02:57:32;;;;;;;9.57;7.60;;;;;;;21.42;47.97;98634.56;6888157;28;20346;-84
2023/06/26 03:00:53;;;;;;;8.70;7.80;;;;;;;21.49;47.91;98643.31;6887842;28;20292;-84
2023/06/26 03:04:17;;;;;;;8.13;7.33;;;;;;;21.56;47.54;98637.56;6891399;28;20365;-84
2023/06/26 03:07:40;;;;;;;8.63;7.57;;;;;;;21.53;47.61;98643.63;6892867;28;20218;-84
2023/06/26 03:11:01;;;;;;;8.37;7.40;;;;;;;21.93;46.49;98640.72;6893201;28;20318;-84
2023/06/26 03:14:23;;;;;;;9.03;7.90;;;;;;;21.54;47.40;98637.81;6892790;28;20293;-84
2023/06/26 03:17:44;;;;;;;8.70;7.73;;;;;;;21.72;47.13;98628.22;6893135;28;20354;-84
2023/06/26 03:21:06;;;;;;;10.17;7.30;;;;;;;21.74;46.78;98646.03;6892643;28;20294;-84
2023/06/26 03:24:29;;;;;;;8.40;7.43;;;;;;;21.67;46.89;98630.97;6892713;28;20700;-84
2023/06/26 03:27:50;;;;;;;8.90;8.00;;;;;;;20.72;49.40;98635.75;6892522;28;20220;-83
2023/06/26 03:31:12;;;;;;;8.50;7.63;;;;;;;20.70;48.99;98594.09;6892405;28;20846;-84
2023/06/26 03:34:33;;;;;;;8.83;7.63;;;;;;;21.35;47.92;98638.69;6893103;28;20295;-83
2023/06/26 03:37:55;;;;;;;8.87;7.77;;;;;;;21.42;47.56;98639.25;6893526;28;20308;-84
2023/06/26 03:41:18;;;;;;;9.83;7.80;;;;;;;21.12;48.76;98636.59;6893391;28;20844;-84
2023/06/26 03:44:41;;;;;;;8.77;7.50;;;;;;;21.20;48.11;98625.84;6893331;28;20213;-84
2023/06/26 03:48:03;;;;;;;8.97;8.07;;;;;;;21.04;48.89;98639.06;6893303;28;20281;-84
2023/06/26 03:51:25;;;;;;;8.50;7.70;;;;;;;21.20;48.02;98647.78;6893101;28;20361;-83
2023/06/26 03:54:46;;;;;;;8.63;7.77;;;;;;;20.65;49.74;98657.13;6893442;28;20296;-83
2023/06/26 03:58:09;;;;;;;9.10;7.50;;;;;;;20.31;50.84;98650.50;6892972;28;20243;-84
2023/06/26 04:01:30;;;;;;;8.93;7.63;;;;;;;20.57;49.57;98597.41;6892555;28;20264;-84
2023/06/26 04:04:52;;;;;;;9.63;8.13;;;;;;;21.00;49.38;98649.75;6892146;28;20295;-84
2023/06/26 04:08:14;;;;;;;8.43;7.63;;;;;;;20.86;49.12;98636.84;6893055;28;20214;-84
2023/06/26 04:11:35;;;;;;;8.80;7.90;;;;;;;21.18;48.96;98651.94;6893135;28;20320;-84
2023/06/26 04:14:58;;;;;;;7.93;7.03;;;;;;;21.37;48.36;98661.22;6892921;28;20287;-84
2023/06/26 04:18:20;;;;;;;10.40;7.80;;;;;;;20.90;49.29;98660.72;6892695;28;20270;-84
2023/06/26 04:21:42;;;;;;;8.93;8.03;;;;;;;21.26;48.55;98645.88;6893604;28;20242;-83
2023/06/26 04:25:04;;;;;;;9.47;7.77;;;;;;;20.73;49.53;98604.50;6900768;28;20699;-83
2023/06/26 04:28:25;;;;;;;9.03;8.23;;;;;;;20.83;49.79;98660.94;6909873;28;20225;-83
2023/06/26 04:31:48;;;;;;;12.63;8.50;;;;;;;21.29;48.90;98662.59;6912248;28;20223;-83
2023/06/26 04:35:10;;;;;;;11.83;8.70;;;;;;;20.72;50.07;98622.03;6929803;28;20204;-82
2023/06/26 04:38:32;;;;;;;15.60;10.13;;;;;;;20.88;49.81;98632.75;6930884;28;20207;-83
2023/06/26 04:41:53;;;;;;;13.63;9.47;;;;;;;21.72;48.19;98650.16;6927010;28;20317;-84
2023/06/26 04:45:15;;;;;;;12.30;9.93;;;;;;;21.69;48.93;98631.50;6926026;28;20247;-85
2023/06/26 04:48:38;;;;;;;11.27;9.07;;;;;;;22.27;47.41;98645.22;6919569;28;20299;-82
2023/06/26 04:52:00;;;;;;;11.73;9.40;;;;;;;22.72;46.69;98647.66;6920077;28;20356;-84
2023/06/26 04:55:23;;;;;;;13.00;9.37;;;;;;;22.33;46.16;98541.59;6926538;28;20207;-83
2023/06/26 04:58:45;;;;;;;12.70;9.70;;;;;;;23.64;44.57;98644.59;6921693;28;20207;-84
2023/06/26 05:02:06;;;;;;;10.83;9.20;;;;;;;23.77;43.96;98645.84;6923242;28;20774;-83
2023/06/26 05:05:29;;;;;;;17.07;9.93;;;;;;;23.97;44.23;98632.66;6914758;28;20204;-83
2023/06/26 05:08:51;;;;;;;13.23;9.90;;;;;;;24.68;42.98;98644.34;6919676;28;20236;-82
2023/06/26 05:12:13;;;;;;;12.37;10.47;;;;;;;25.02;42.76;98638.53;6920248;28;20271;-82
2023/06/26 05:15:34;;;;;;;13.33;9.87;;;;;;;25.23;41.62;98635.09;6920720;28;20258;-82
2023/06/26 05:18:56;;;;;;;13.03;9.73;;;;;;;25.39;41.64;98632.91;6917774;28;20669;-82
2023/06/26 05:22:19;;;;;;;13.93;9.93;;;;;;;25.64;40.67;98630.47;6895531;28;20739;-82
2023/06/26 05:25:42;;;;;;;13.53;10.47;;;;;;;26.09;40.38;98626.81;6901934;28;20215;-83
2023/06/26 05:29:04;;;;;;;13.17;9.23;;;;;;;25.99;40.63;98640.84;6902156;28;20248;-81
2023/06/26 05:32:26;;;;;;;11.93;8.73;;;;;;;26.73;39.86;98639.47;6898217;28;20211;-83
2023/06/26 05:35:49;;;;;;;11.37;8.87;;;;;;;27.08;39.04;98621.97;6897722;28;20207;-82
2023/06/26 05:39:12;;;;;;;10.33;9.30;;;;;;;27.33;39.00;98627.69;6909240;28;20277;-82
2023/06/26 05:42:35;;;;;;;7.87;7.07;;;;;;;27.23;38.57;98636.25;6922618;28;20234;-83
2023/06/26 05:45:57;;;;;;;7.77;6.67;;;;;;;27.66;37.09;98630.94;6920382;28;20263;-82
2023/06/26 05:49:18;;;;;;;7.90;7.20;;;;;;;28.30;37.85;98631.00;6920386;28;20231;-84
2023/06/26 05:52:41;;;;;;;8.20;7.40;;;;;;;28.59;34.60;98608.19;6919842;28;20741;-83
2023/06/26 05:56:04;;;;;;;7.00;6.33;;;;;;;29.45;34.23;98632.75;6900721;28;20345;-83
2023/06/26 05:59:27;;;;;;;7.73;7.03;;;;;;;29.87;32.69;98630.97;6891082;28;20219;-84
2023/06/26 06:02:48;;;;;;;7.40;6.70;;;;;;;30.07;32.71;98642.16;6891885;28;20230;-82
2023/06/26 06:06:10;;;;;;;6.37;5.83;;;;;;;30.67;31.63;98639.84;6891734;28;20321;-83
2023/06/26 06:09:31;;;;;;;8.27;6.63;;;;;;;31.03;30.86;98634.47;6891386;28;20373;-84
2023/06/26 06:12:54;;;;;;;7.30;6.60;;;;;;;31.18;30.49;98636.63;6914294;28;20282;-84
2023/06/26 06:16:16;;;;;;;7.10;6.40;;;;;;;31.62;29.93;98627.47;6919977;28;20386;-84
2023/06/26 06:19:37;;;;;;;6.83;5.93;;;;;;;32.02;30.35;98631.22;6923366;28;20243;-84
2023/06/26 06:23:00;;;;;;;6.83;6.23;;;;;;;32.26;29.73;98634.03;6918624;28;20321;-84
2023/06/26 06:26:22;;;;;;;6.80;6.10;;;;;;;32.74;28.36;98631.16;6891966;28;20220;-84
2023/06/26 06:29:44;;;;;;;6.17;5.57;;;;;;;32.44;28.64;98623.44;6890568;28;20314;-84
2023/06/26 06:33:06;;;;;;;6.67;6.07;;;;;;;32.46;28.45;98577.25;6891626;28;20212;-84
2023/06/26 06:36:28;;;;;;;6.87;6.27;;;;;;;32.75;27.76;98624.41;6892077;28;20336;-85
2023/06/26 06:39:49;;;;;;;6.40;5.80;;;;;;;33.16;27.78;98635.22;6895184;28;20296;-84
2023/06/26 06:43:11;;;;;;;5.83;5.33;;;;;;;33.13;27.60;98609.97;6894990;28;20260;-84
2023/06/26 06:46:33;;;;;;;6.73;5.50;;;;;;;32.96;28.11;98633.41;6894490;28;20801;-85
2023/06/26 06:49:55;;;;;;;7.03;6.30;;;;;;;33.36;27.86;98620.22;6894731;28;20366;-84
2023/06/26 06:53:20;;;;;;;6.73;6.10;;;;;;;33.37;27.12;98627.44;6899964;28;20212;-84
2023/06/26 06:56:41;;;;;;;6.47;5.87;;;;;;;34.15;26.89;98630.28;6892120;28;20231;-84
2023/06/26 07:00:05;;;;;;;6.73;6.00;;;;;;;34.58;25.82;98635.72;6892547;28;20315;-84
2023/06/26 07:03:27;;;;;;;5.73;5.23;;;;;;;35.01;24.89;98632.72;6893949;28;20225;-85
2023/06/26 07:06:49;;;;;;;6.47;5.90;;;;;;;34.03;25.89;98625.59;6895083;28;20228;-84
2023/06/26 07:10:12;;;;;;;6.13;5.53;;;;;;;33.76;26.19;98559.34;6897214;28;20357;-84
2023/06/26 07:13:33;;;;;;;6.60;5.77;;;;;;;34.30;25.26;98632.28;6895011;28;20208;-84
2023/06/26 07:16:55;;;;;;;6.53;5.80;;;;;;;34.07;25.73;98629.31;6891938;28;20238;-84
2023/06/26 07:20:18;;;;;;;6.50;5.83;;;;;;;34.44;25.65;98630.59;6892541;28;20366;-84
2023/06/26 07:23:39;;;;;;;6.57;6.07;;;;;;;33.56;25.41;98557.66;6892905;28;20326;-84
2023/06/26 07:27:01;;;;;;;6.63;6.03;;;;;;;32.98;26.99;98636.69;6891953;28;20669;-85
2023/06/26 07:30:23;;;;;;;6.67;6.07;;;;;;;33.87;26.27;98633.22;6892627;28;20704;-84
2023/06/26 07:33:45;;;;;;;6.13;5.50;;;;;;;34.67;25.70;98634.34;6892351;28;20647;-85
2023/06/26 07:37:08;;;;;;;6.47;5.83;;;;;;;35.51;24.09;98627.75;6891168;28;20209;-85
2023/06/26 07:40:30;;;;;;;9.27;6.50;;;;;;;35.21;24.44;98637.94;6892032;28;20236;-85
2023/06/26 07:43:52;;;;;;;7.10;5.90;;;;;;;35.23;24.77;98617.97;6890463;28;20327;-84
2023/06/26 07:47:14;;;;;;;7.27;6.27;;;;;;;34.54;25.19;98616.03;6890630;28;20272;-84
2023/06/26 07:50:36;;;;;;;8.67;6.30;;;;;;;34.55;25.41;98577.66;6890876;28;20309;-85
2023/06/26 07:53:59;;;;;;;8.90;6.27;;;;;;;34.26;26.87;98640.59;6891321;28;20346;-84
2023/06/26 07:57:20;;;;;;;7.07;6.10;;;;;;;35.68;24.71;98629.25;6890469;28;20198;-84
2023/06/26 08:00:42;;;;;;;6.27;5.67;;;;;;;35.74;24.38;98634.22;6891519;28;20236;-84
2023/06/26 08:04:03;;;;;;;7.60;6.80;;;;;;;34.51;25.84;98628.00;6892902;28;20374;-84
2023/06/26 08:07:25;;;;;;;6.90;6.30;;;;;;;34.25;25.91;98647.34;6893168;28;20657;-86
2023/06/26 08:10:48;;;;;;;7.50;5.60;;;;;;;35.55;25.22;98634.22;6890233;28;20240;-85
2023/06/26 08:14:09;;;;;;;7.43;6.10;;;;;;;34.88;24.82;98629.25;6890970;28;20257;-86
2023/06/26 08:17:31;;;;;;;6.23;5.63;;;;;;;35.25;24.68;98585.56;6889653;28;20790;-86
2023/06/26 08:20:53;;;;;;;6.60;5.73;;;;;;;34.79;24.98;98567.00;6890592;28;20232;-84
2023/06/26 08:24:16;;;;;;;6.63;6.03;;;;;;;34.41;25.81;98614.56;6891970;28;20297;-84
2023/06/26 08:27:38;;;;;;;6.33;5.73;;;;;;;35.50;24.52;98617.69;6889947;28;20224;-87
2023/06/26 08:31:01;;;;;;;7.53;5.83;;;;;;;36.22;23.14;98608.19;6891436;28;20228;-83
2023/06/26 08:34:22;;;;;;;7.10;6.10;;;;;;;36.02;23.77;98614.22;6891364;28;20338;-83
2023/06/26 08:37:43;;;;;;;7.73;6.20;;;;;;;34.24;25.55;98603.72;6890295;28;20361;-83
2023/06/26 08:41:05;;;;;;;6.10;5.50;;;;;;;34.90;24.54;98600.84;6922582;28;20306;-84
2023/06/26 08:44:29;;;;;;;6.03;5.53;;;;;;;35.77;24.41;98613.81;6918196;28;20225;-83
2023/06/26 08:47:53;;;;;;;6.13;5.57;;;;;;;36.43;22.96;98616.09;6914005;28;20227;-83
2023/06/26 08:51:17;;;;;;;6.20;5.60;;;;;;;37.38;21.94;98619.00;6927256;28;20234;-83
2023/06/26 08:54:44;;;;;;;5.90;5.30;;;;;;;37.32;21.86;98603.66;6928274;28;20646;-84
2023/06/26 08:58:05;;;;;;;6.23;5.70;;;;;;;36.23;23.22;98618.22;6911348;28;20219;-82
2023/06/26 09:01:28;;;;;;;7.77;5.97;;;;;;;36.13;22.76;98551.44;6927282;28;20235;-84
2023/06/26 09:04:50;;;;;;;9.30;5.67;;;;;;;36.64;23.08;98614.44;6927501;28;20224;-83
2023/06/26 09:08:13;;;;;;;6.23;5.63;;;;;;;36.48;23.27;98608.16;6926175;28;20295;-83
2023/06/26 09:11:34;;;;;;;6.53;5.30;;;;;;;36.76;22.65;98616.19;6923885;28;20400;-84
2023/06/26 09:14:57;;;;;;;6.37;5.60;;;;;;;36.37;22.38;98620.44;6916406;28;20204;-84
2023/06/26 09:18:21;;;;;;;6.10;5.50;;;;;;;36.64;22.76;98599.56;6893861;28;20690;-84
2023/06/26 09:21:43;;;;;;;9.00;5.40;;;;;;;37.72;21.40;98586.00;6903044;28;20222;-87
2023/06/26 09:25:07;;;;;;;9.73;5.07;;;;;;;38.43;20.94;98607.94;6917309;28;20267;-84
2023/06/26 09:28:29;;;;;;;6.13;5.27;;;;;;;38.86;20.67;98602.19;6899894;28;20203;-86
2023/06/26 09:31:52;;;;;;;5.70;4.93;;;;;;;38.04;20.99;98537.22;6914947;28;20232;-83
2023/06/26 09:35:16;;;;;;;6.30;5.17;;;;;;;36.93;21.63;98598.75;6907661;28;20348;-83
2023/06/26 09:38:37;;;;;;;5.43;4.93;;;;;;;37.37;21.15;98600.50;6893158;28;20602;-83
2023/06/26 09:42:01;;;;;;;5.63;5.00;;;;;;;37.44;21.49;98596.97;6890044;28;20707;-83
2023/06/26 09:45:23;;;;;;;6.38;5.10;;;;;;;37.95;21.64;98581.78;6892260;28;20236;-83
2023/06/26 09:48:45;;;;;;;6.37;5.20;;;;;;;38.73;20.28;98583.16;6916434;28;20267;-83
2023/06/26 09:52:08;;;;;;;8.02;5.05;;;;;;;37.97;21.18;98576.56;6895176;28;20661;-83
2023/06/26 09:55:29;;;;;;;6.77;5.13;;;;;;;37.09;22.39;98582.50;6890846;28;20346;-81
2023/06/26 09:58:51;;;;;;;7.13;4.90;;;;;;;37.06;22.26;98575.63;6892287;28;20213;-83
2023/06/26 10:02:13;;;;;;;8.17;5.00;;;;;;;37.26;21.93;98577.06;6895741;28;20306;-82
2023/06/26 10:05:35;;;;;;;7.53;4.88;;;;;;;37.45;21.91;98576.06;6901630;28;20601;-82
2023/06/26 10:08:59;;;;;;;7.75;5.00;;;;;;;37.11;23.11;98574.50;6891608;28;20232;-82
2023/06/26 10:12:26;;;;;;;5.77;5.00;;;;;;;37.21;22.82;98587.88;6897285;28;20359;-81
2023/06/26 10:15:49;;;;;;;5.97;5.13;;;;;;;36.70;23.36;98570.75;6898117;28;20252;-86
2023/06/26 10:19:11;;;;;;;6.27;5.10;;;;;;;36.93;22.77;98534.09;6909279;28;20300;-82
2023/06/26 10:22:37;;;;;;;6.35;5.25;;;;;;;37.32;22.62;98580.34;6898186;28;20318;-81
2023/06/26 10:26:01;;;;;;;5.37;4.60;;;;;;;37.45;22.37;98554.38;6897152;28;20573;-82
2023/06/26 10:29:24;;;;;;;6.30;4.80;;;;;;;36.33;22.96;98566.19;6897105;28;20628;-82
2023/06/26 10:32:48;;;;;;;5.97;4.80;;;;;;;36.66;23.39;98572.69;6897302;28;20730;-82
2023/06/26 10:36:19;;;;;;;6.93;5.20;;;;;;;36.94;22.81;98575.06;6897691;28;20271;-82
2023/06/26 10:39:49;;;;;;;5.43;4.73;;;;;;;36.53;23.62;98578.91;6896536;28;20334;-80
2023/06/26 10:43:13;;;;;;;5.93;5.20;;;;;;;36.07;24.37;98569.00;6896992;28;20286;-81
2023/06/26 10:46:35;;;;;;;8.23;5.20;;;;;;;35.99;24.45;98582.09;6898320;28;20262;-82
2023/06/26 10:49:56;;;;;;;6.97;5.40;;;;;;;35.77;24.82;98591.34;6899709;28;20235;-81
2023/06/26 10:53:24;;;;;;;6.57;5.70;;;;;;;36.61;24.10;98598.28;6898099;28;20737;-86
2023/06/26 10:56:50;;;;;;;8.27;5.33;;;;;;;36.11;24.33;98553.81;6894997;28;20200;-84
2023/06/26 11:00:15;;;;;;;7.40;5.47;;;;;;;35.80;25.26;98565.38;6895713;28;20233;-83
2023/06/26 11:03:38;;;;;;;6.87;5.30;;;;;;;36.60;24.54;98607.91;6893065;28;20292;-83
2023/06/26 11:07:15;;;;;;;9.20;5.43;;;;;;;36.51;24.32;98595.34;6893080;28;20295;-83
2023/06/26 11:10:52;;;;;;;5.80;5.20;;;;;;;35.52;25.34;98603.28;6895197;28;20282;-83
2023/06/26 11:14:14;;;;;;;7.33;5.90;;;;;;;35.36;25.52;98599.81;6898720;28;20293;-83
2023/06/26 11:17:38;;;;;;;7.40;5.80;;;;;;;34.98;26.01;98591.41;6894521;28;20368;-84
2023/06/26 11:21:06;;;;;;;6.80;5.57;;;;;;;35.58;24.94;98599.81;6895274;28;20809;-84
2023/06/26 11:24:27;;;;;;;6.03;5.50;;;;;;;35.99;24.75;98595.31;6894710;28;20235;-83
2023/06/26 11:27:49;;;;;;;6.17;5.57;;;;;;;36.13;23.89;98553.44;6897176;28;20196;-83
2023/06/26 11:31:24;;;;;;;8.27;5.83;;;;;;;37.10;24.17;98592.56;6897411;28;20739;-83
2023/06/26 11:34:48;;;;;;;6.60;6.00;;;;;;;37.62;24.05;98589.53;6897222;28;20589;-82
2023/06/26 11:38:10;;;;;;;8.57;6.17;;;;;;;36.24;25.27;98602.16;6896509;28;20224;-83
2023/06/26 11:41:33;;;;;;;6.70;5.97;;;;;;;35.40;26.17;98607.09;6896611;28;20228;-83
2023/06/26 11:44:55;;;;;;;6.13;5.57;;;;;;;36.11;25.58;98576.28;6896949;28;20373;-83
2023/06/26 11:48:18;;;;;;;5.93;5.40;;;;;;;35.75;26.25;98596.53;6896507;28;20295;-83
2023/06/26 11:51:42;;;;;;;8.17;5.87;;;;;;;35.83;25.50;98608.72;6898492;28;20608;-82
2023/06/26 11:55:04;;;;;;;7.13;5.73;;;;;;;34.80;27.61;98612.63;6897901;28;20208;-83
2023/06/26 11:58:26;;;;;;;6.53;5.53;;;;;;;35.79;27.16;98605.81;6898523;28;20264;-83
2023/06/26 12:01:47;;;;;;;6.47;5.50;;;;;;;36.39;25.52;98595.56;6898623;28;20248;-83
2023/06/26 12:05:10;;;;;;;6.03;5.50;;;;;;;37.29;24.73;98612.88;6897907;28;20324;-88
2023/06/26 12:08:33;;;;;;;6.83;5.63;;;;;;;36.69;26.10;98602.88;6898702;28;20205;-83
2023/06/26 12:11:56;;;;;;;7.20;5.53;;;;;;;36.27;26.26;98627.50;6906032;28;20315;-83
2023/06/26 12:15:18;;;;;;;9.57;6.17;;;;;;;35.55;27.58;98630.59;6906718;28;20211;-82
2023/06/26 12:18:40;;;;;;;7.23;5.60;;;;;;;35.34;27.94;98642.25;6904963;28;20215;-83
2023/06/26 12:22:07;;;;;;;57.97;52.33;;;;;;;35.99;27.82;98638.25;6899272;28;20213;-83
2023/06/26 12:25:30;;;;;;;26.87;23.97;;;;;;;35.75;28.14;98604.13;6897125;28;20236;-83
2023/06/26 12:28:51;;;;;;;102.30;92.10;;;;;;;35.31;28.62;98626.13;6895472;28;20208;-85
2023/06/26 12:32:14;;;;;;;14.50;12.83;;;;;;;35.99;27.44;98596.13;6892345;28;20329;-87
2023/06/26 12:35:36;;;;;;;95.13;85.90;;;;;;;36.06;27.92;98629.94;6893862;28;20262;-84
2023/06/26 12:39:01;;;;;;;10.03;6.50;;;;;;;35.33;28.43;98628.56;6903680;28;20667;-86
2023/06/26 12:42:25;;;;;;;11.77;6.17;;;;;;;35.44;28.00;98632.41;6920990;28;20288;-82
2023/06/26 12:45:47;;;;;;;8.97;5.80;;;;;;;35.40;28.34;98637.94;6926530;28;20251;-83
2023/06/26 12:49:08;;;;;;;7.00;5.70;;;;;;;35.32;28.46;98626.97;6929020;28;20228;-83
2023/06/26 12:52:30;;;;;;;7.60;5.67;;;;;;;35.20;28.94;98619.47;6931204;28;20188;-83
2023/06/26 12:55:52;;;;;;;9.30;5.93;;;;;;;35.40;28.69;98618.31;6924452;28;20287;-84
2023/06/26 12:59:14;;;;;;;6.77;5.20;;;;;;;36.32;27.30;98615.94;6919977;28;20222;-84
2023/06/26 13:02:36;;;;;;;5.90;5.30;;;;;;;36.65;27.02;98592.75;6921269;28;20301;-84
2023/06/26 13:05:58;;;;;;;8.87;5.83;;;;;;;36.47;27.14;98609.34;6923325;28;20265;-84
2023/06/26 13:09:19;;;;;;;6.20;5.67;;;;;;;36.10;26.96;98588.69;6925490;28;20215;-85
2023/06/26 13:12:41;;;;;;;9.03;5.53;;;;;;;35.59;27.97;98618.25;6926288;28;20694;-84
2023/06/26 13:16:04;;;;;;;8.70;6.03;;;;;;;35.30;28.70;98584.44;6925351;28;20228;-84
2023/06/26 13:19:26;;;;;;;8.07;6.17;;;;;;;34.55;28.95;98616.88;6928375;28;20273;-86
2023/06/26 13:22:48;;;;;;;10.07;5.87;;;;;;;34.58;29.32;98572.13;6928685;28;20253;-85
2023/06/26 13:26:09;;;;;;;8.17;5.47;;;;;;;35.64;27.94;98609.53;6927843;28;20281;-86
2023/06/26 13:29:32;;;;;;;7.77;5.87;;;;;;;34.71;28.54;98555.97;6926996;28;20232;-86
2023/06/26 13:32:54;;;;;;;10.17;6.23;;;;;;;35.52;27.96;98609.72;6924010;28;20211;-86
2023/06/26 13:36:16;;;;;;;6.33;5.63;;;;;;;35.54;27.83;98620.56;6919858;28;20281;-85
2023/06/26 13:39:38;;;;;;;5.73;4.77;;;;;;;36.30;26.84;98621.13;6915229;28;20579;-85
2023/06/26 13:43:00;;;;;;;6.87;5.23;;;;;;;35.93;26.58;98603.25;6915268;28;20271;-86
2023/06/26 13:46:21;;;;;;;6.13;4.97;;;;;;;34.61;28.27;98607.78;6914190;28;20235;-86
2023/06/26 13:49:44;;;;;;;8.17;5.20;;;;;;;34.79;27.28;98581.00;6914316;28;20257;-85
2023/06/26 13:53:06;;;;;;;6.30;5.27;;;;;;;34.44;27.50;98504.59;6915045;28;20295;-86
2023/06/26 13:56:30;;;;;;;7.10;4.83;;;;;;;35.00;27.05;98617.88;6914903;28;20212;-86
2023/06/26 13:59:52;;;;;;;5.40;4.57;;;;;;;34.35;27.57;98606.78;6915316;28;20229;-86
2023/06/26 14:03:13;;;;;;;6.43;4.73;;;;;;;34.61;26.63;98590.19;6915825;28;20212;-86
2023/06/26 14:06:36;;;;;;;6.70;5.00;;;;;;;34.47;26.79;98567.47;6914945;28;20231;-85
2023/06/26 14:09:58;;;;;;;6.10;5.13;;;;;;;34.78;25.67;98558.97;6914750;28;20244;-86
2023/06/26 14:13:19;;;;;;;5.13;4.53;;;;;;;34.63;26.56;98622.25;6915209;28;20303;-86
2023/06/26 14:16:41;;;;;;;4.90;4.50;;;;;;;34.76;25.84;98618.16;6914387;28;20211;-86
2023/06/26 14:20:05;;;;;;;7.00;5.07;;;;;;;34.54;25.76;98624.44;6915537;28;20311;-86
2023/06/26 14:23:28;;;;;;;6.63;4.47;;;;;;;35.34;24.69;98627.38;6914767;28;20208;-86
2023/06/26 14:26:49;;;;;;;5.10;4.60;;;;;;;35.31;24.42;98626.13;6913575;28;20223;-85
2023/06/26 14:30:12;;;;;;;4.50;4.10;;;;;;;34.70;25.14;98577.59;6914271;28;20231;-86
2023/06/26 14:33:36;;;;;;;4.87;4.30;;;;;;;35.32;25.01;98619.34;6914261;28;20244;-86
2023/06/26 14:36:58;;;;;;;5.47;4.10;;;;;;;35.16;24.77;98624.22;6913970;28;20261;-86
2023/06/26 14:40:21;;;;;;;4.47;4.03;;;;;;;35.26;24.67;98632.03;6892875;28;20374;-86
2023/06/26 14:43:42;;;;;;;3.47;3.10;;;;;;;35.11;24.49;98643.31;6888294;28;20208;-86
2023/06/26 14:47:05;;;;;;;3.97;3.57;;;;;;;34.24;25.40;98642.91;6887479;28;20315;-86
2023/06/26 14:50:26;;;;;;;6.37;3.60;;;;;;;34.65;24.90;98635.88;6887630;28;20315;-86
2023/06/26 14:53:48;;;;;;;5.60;3.50;;;;;;;34.65;24.91;98647.91;6887367;28;20244;-86
2023/06/26 14:57:10;;;;;;;6.27;3.60;;;;;;;35.45;23.73;98637.66;6886879;28;20200;-85
2023/06/26 15:00:32;;;;;;;4.87;3.20;;;;;;;34.69;24.50;98645.19;6891866;28;20280;-86
2023/06/26 15:03:53;;;;;;;5.10;3.40;;;;;;;34.22;25.18;98656.47;6891818;28;20776;-86
2023/06/26 15:07:15;;;;;;;5.97;3.57;;;;;;;34.09;25.51;98660.56;6892489;28;20290;-88
2023/06/26 15:10:37;;;;;;;6.50;3.80;;;;;;;33.35;26.23;98596.25;6894450;28;20260;-86
2023/06/26 15:13:59;;;;;;;5.17;4.00;;;;;;;32.96;27.05;98646.59;6894232;28;20208;-86
2023/06/26 15:17:21;;;;;;;5.37;3.67;;;;;;;33.49;26.05;98593.00;6892171;28;20207;-85
2023/06/26 15:20:43;;;;;;;5.90;3.77;;;;;;;33.05;26.99;98619.31;6893956;28;20345;-87
2023/06/26 15:24:04;;;;;;;4.47;3.30;;;;;;;34.14;26.04;98645.47;6921119;28;20200;-86
2023/06/26 15:27:28;;;;;;;3.53;3.23;;;;;;;33.79;26.31;98638.97;6920437;28;20208;-86
2023/06/26 15:30:51;;;;;;;7.97;3.60;;;;;;;33.79;26.29;98650.16;6918921;28;20242;-88
2023/06/26 15:34:13;;;;;;;4.50;3.80;;;;;;;33.41;26.48;98644.31;6918313;28;20288;-88
2023/06/26 15:37:34;;;;;;;5.70;4.20;;;;;;;33.12;26.18;98592.38;6918200;28;20208;-87
2023/06/26 15:40:56;;;;;;;4.80;4.30;;;;;;;33.42;26.60;98651.56;6917361;28;20797;-87
2023/06/26 15:44:17;;;;;;;4.50;3.30;;;;;;;33.79;26.15;98642.56;6917884;28;20675;-88
2023/06/26 15:47:42;;;;;;;4.50;4.10;;;;;;;32.37;26.87;98556.22;6916730;28;20208;-87
2023/06/26 15:51:03;;;;;;;6.10;4.73;;;;;;;32.89;27.18;98654.78;6917855;28;20235;-88